Terminal Aerodrome Forecast
Issued by NWS

Home | Current Version | Previous Version | Graphics & Text | Print | Product List | Glossary On
Versions: 1 2 3 4 5 6 7 8 9 10 11 12 13 14 15 16 17 18
000
FTUS43 KLSX 231100
TAFSUS
TAF
KSUS 231120Z 2312/2412 35004KT P6SM SCT015 SCT040
     FM231400 02010KT P6SM SCT040
     FM240100 VRB04KT P6SM SKC=

USA.gov is the U.S. government's official web portal to all federal, state and local government web resources and services.